sensor_id;sensor_type;location;lat;lon;timestamp;P1;durP1;ratioP1;P2;durP2;ratioP2
61572;SDS011;47465;43.094;12.434;2023-03-03T00:00:49;10.18;;;5.88;;
61572;SDS011;47465;43.094;12.434;2023-03-03T00:03:16;11.52;;;5.60;;
61572;SDS011;47465;43.094;12.434;2023-03-03T00:05:44;9.27;;;6.80;;
61572;SDS011;47465;43.094;12.434;2023-03-03T00:08:11;10.45;;;6.22;;
61572;SDS011;47465;43.094;12.434;2023-03-03T00:10:38;9.40;;;6.17;;
61572;SDS011;47465;43.094;12.434;2023-03-03T00:13:05;8.68;;;5.57;;
61572;SDS011;47465;43.094;12.434;2023-03-03T00:15:37;8.32;;;5.50;;
61572;SDS011;47465;43.094;12.434;2023-03-03T00:18:05;8.40;;;5.22;;
61572;SDS011;47465;43.094;12.434;2023-03-03T00:20:45;9.45;;;5.60;;
61572;SDS011;47465;43.094;12.434;2023-03-03T00:23:18;6.82;;;4.68;;
61572;SDS011;47465;43.094;12.434;2023-03-03T00:25:49;9.43;;;5.57;;
61572;SDS011;47465;43.094;12.434;2023-03-03T00:30:46;10.02;;;5.25;;
61572;SDS011;47465;43.094;12.434;2023-03-03T00:33:14;8.77;;;4.97;;
61572;SDS011;47465;43.094;12.434;2023-03-03T00:35:48;11.15;;;6.68;;
61572;SDS011;47465;43.094;12.434;2023-03-03T00:38:15;10.52;;;6.25;;
61572;SDS011;47465;43.094;12.434;2023-03-03T00:40:43;10.90;;;6.40;;
61572;SDS011;47465;43.094;12.434;2023-03-03T00:43:16;13.02;;;6.43;;
61572;SDS011;47465;43.094;12.434;2023-03-03T00:45:44;9.60;;;6.70;;
61572;SDS011;47465;43.094;12.434;2023-03-03T00:48:21;11.38;;;6.28;;
61572;SDS011;47465;43.094;12.434;2023-03-03T00:50:50;9.80;;;6.57;;
61572;SDS011;47465;43.094;12.434;2023-03-03T00:53:19;9.95;;;6.30;;
61572;SDS011;47465;43.094;12.434;2023-03-03T00:55:46;13.37;;;8.13;;
61572;SDS011;47465;43.094;12.434;2023-03-03T00:58:14;14.90;;;7.18;;
61572;SDS011;47465;43.094;12.434;2023-03-03T01:00:41;11.68;;;6.85;;
61572;SDS011;47465;43.094;12.434;2023-03-03T01:03:08;12.40;;;7.28;;
61572;SDS011;47465;43.094;12.434;2023-03-03T01:05:37;10.93;;;7.05;;
61572;SDS011;47465;43.094;12.434;2023-03-03T01:08:03;11.23;;;6.60;;
61572;SDS011;47465;43.094;12.434;2023-03-03T01:10:32;11.93;;;7.43;;
61572;SDS011;47465;43.094;12.434;2023-03-03T01:13:02;11.65;;;6.53;;
61572;SDS011;47465;43.094;12.434;2023-03-03T01:15:29;9.40;;;6.03;;
61572;SDS011;47465;43.094;12.434;2023-03-03T01:17:55;11.13;;;6.88;;
61572;SDS011;47465;43.094;12.434;2023-03-03T01:20:24;11.73;;;7.25;;
61572;SDS011;47465;43.094;12.434;2023-03-03T01:22:51;12.07;;;6.47;;
61572;SDS011;47465;43.094;12.434;2023-03-03T01:25:16;10.25;;;6.47;;
61572;SDS011;47465;43.094;12.434;2023-03-03T01:27:44;10.43;;;6.40;;
61572;SDS011;47465;43.094;12.434;2023-03-03T01:30:10;11.25;;;6.65;;
61572;SDS011;47465;43.094;12.434;2023-03-03T01:32:37;12.85;;;6.55;;
61572;SDS011;47465;43.094;12.434;2023-03-03T01:35:03;12.02;;;6.60;;
61572;SDS011;47465;43.094;12.434;2023-03-03T01:37:29;13.52;;;7.18;;
61572;SDS011;47465;43.094;12.434;2023-03-03T01:39:56;11.38;;;6.35;;
61572;SDS011;47465;43.094;12.434;2023-03-03T01:42:22;13.98;;;7.10;;
61572;SDS011;47465;43.094;12.434;2023-03-03T01:47:43;13.45;;;7.00;;
61572;SDS011;47465;43.094;12.434;2023-03-03T01:50:13;11.85;;;6.65;;
61572;SDS011;47465;43.094;12.434;2023-03-03T01:52:45;12.73;;;7.18;;
61572;SDS011;47465;43.094;12.434;2023-03-03T01:55:13;11.68;;;6.70;;
61572;SDS011;47465;43.094;12.434;2023-03-03T01:57:45;13.13;;;6.97;;
61572;SDS011;47465;43.094;12.434;2023-03-03T02:00:18;14.15;;;7.57;;
61572;SDS011;47465;43.094;12.434;2023-03-03T02:02:44;14.75;;;7.60;;
61572;SDS011;47465;43.094;12.434;2023-03-03T02:05:11;14.63;;;7.30;;
61572;SDS011;47465;43.094;12.434;2023-03-03T02:07:39;13.85;;;7.32;;
61572;SDS011;47465;43.094;12.434;2023-03-03T02:10:06;16.90;;;7.30;;
61572;SDS011;47465;43.094;12.434;2023-03-03T02:12:35;13.70;;;8.50;;
61572;SDS011;47465;43.094;12.434;2023-03-03T02:15:14;13.57;;;7.25;;
61572;SDS011;47465;43.094;12.434;2023-03-03T02:17:42;13.40;;;8.00;;
61572;SDS011;47465;43.094;12.434;2023-03-03T02:20:09;11.48;;;7.57;;
61572;SDS011;47465;43.094;12.434;2023-03-03T02:22:39;12.13;;;6.70;;
61572;SDS011;47465;43.094;12.434;2023-03-03T02:25:12;13.30;;;7.60;;
61572;SDS011;47465;43.094;12.434;2023-03-03T02:27:47;14.27;;;7.45;;
61572;SDS011;47465;43.094;12.434;2023-03-03T02:30:14;14.20;;;8.13;;
61572;SDS011;47465;43.094;12.434;2023-03-03T02:32:42;17.20;;;7.63;;
61572;SDS011;47465;43.094;12.434;2023-03-03T02:35:29;13.77;;;8.32;;
61572;SDS011;47465;43.094;12.434;2023-03-03T02:37:58;15.85;;;8.45;;
61572;SDS011;47465;43.094;12.434;2023-03-03T02:40:43;15.13;;;8.68;;
61572;SDS011;47465;43.094;12.434;2023-03-03T02:43:19;14.57;;;8.18;;
61572;SDS011;47465;43.094;12.434;2023-03-03T02:45:49;16.05;;;8.73;;
61572;SDS011;47465;43.094;12.434;2023-03-03T02:48:15;13.77;;;7.40;;
61572;SDS011;47465;43.094;12.434;2023-03-03T02:50:41;13.40;;;8.10;;
61572;SDS011;47465;43.094;12.434;2023-03-03T02:53:07;16.85;;;8.35;;
61572;SDS011;47465;43.094;12.434;2023-03-03T02:55:33;12.15;;;7.13;;
61572;SDS011;47465;43.094;12.434;2023-03-03T02:57:59;18.27;;;9.32;;
61572;SDS011;47465;43.094;12.434;2023-03-03T03:00:26;14.68;;;7.82;;
61572;SDS011;47465;43.094;12.434;2023-03-03T03:02:52;12.48;;;7.25;;
61572;SDS011;47465;43.094;12.434;2023-03-03T03:05:18;13.93;;;8.20;;
61572;SDS011;47465;43.094;12.434;2023-03-03T03:07:44;12.40;;;7.35;;
61572;SDS011;47465;43.094;12.434;2023-03-03T03:10:10;11.98;;;7.50;;
61572;SDS011;47465;43.094;12.434;2023-03-03T03:12:36;13.00;;;7.85;;
61572;SDS011;47465;43.094;12.434;2023-03-03T03:15:02;12.95;;;7.97;;
61572;SDS011;47465;43.094;12.434;2023-03-03T03:17:30;14.98;;;7.80;;
61572;SDS011;47465;43.094;12.434;2023-03-03T03:19:56;11.60;;;7.13;;
61572;SDS011;47465;43.094;12.434;2023-03-03T03:22:22;12.95;;;7.53;;
61572;SDS011;47465;43.094;12.434;2023-03-03T03:24:48;13.93;;;7.00;;
61572;SDS011;47465;43.094;12.434;2023-03-03T03:27:14;14.50;;;7.68;;
61572;SDS011;47465;43.094;12.434;2023-03-03T03:29:40;13.40;;;6.82;;
61572;SDS011;47465;43.094;12.434;2023-03-03T03:32:06;14.50;;;8.00;;
61572;SDS011;47465;43.094;12.434;2023-03-03T03:34:33;14.20;;;8.23;;
61572;SDS011;47465;43.094;12.434;2023-03-03T03:36:59;15.25;;;7.75;;
61572;SDS011;47465;43.094;12.434;2023-03-03T03:39:25;13.00;;;6.80;;
61572;SDS011;47465;43.094;12.434;2023-03-03T03:41:53;12.25;;;6.78;;
61572;SDS011;47465;43.094;12.434;2023-03-03T03:44:19;14.35;;;7.53;;
61572;SDS011;47465;43.094;12.434;2023-03-03T03:46:48;13.73;;;6.25;;
61572;SDS011;47465;43.094;12.434;2023-03-03T03:49:14;13.80;;;6.68;;
61572;SDS011;47465;43.094;12.434;2023-03-03T03:51:41;11.70;;;6.75;;
61572;SDS011;47465;43.094;12.434;2023-03-03T03:54:07;11.32;;;6.75;;
61572;SDS011;47465;43.094;12.434;2023-03-03T03:56:33;11.88;;;6.88;;
61572;SDS011;47465;43.094;12.434;2023-03-03T03:58:59;13.63;;;7.05;;
61572;SDS011;47465;43.094;12.434;2023-03-03T04:01:25;12.23;;;7.10;;
61572;SDS011;47465;43.094;12.434;2023-03-03T04:03:51;11.55;;;7.43;;
61572;SDS011;47465;43.094;12.434;2023-03-03T04:06:17;12.43;;;6.57;;
61572;SDS011;47465;43.094;12.434;2023-03-03T04:08:44;12.18;;;7.07;;
61572;SDS011;47465;43.094;12.434;2023-03-03T04:11:10;11.70;;;6.45;;
61572;SDS011;47465;43.094;12.434;2023-03-03T04:13:36;11.30;;;7.13;;
61572;SDS011;47465;43.094;12.434;2023-03-03T04:16:02;9.95;;;6.53;;
61572;SDS011;47465;43.094;12.434;2023-03-03T04:18:28;12.52;;;7.07;;
61572;SDS011;47465;43.094;12.434;2023-03-03T04:20:54;11.43;;;6.40;;
61572;SDS011;47465;43.094;12.434;2023-03-03T04:23:20;12.88;;;6.38;;
61572;SDS011;47465;43.094;12.434;2023-03-03T04:25:48;12.30;;;6.70;;
61572;SDS011;47465;43.094;12.434;2023-03-03T04:28:14;11.93;;;6.75;;
61572;SDS011;47465;43.094;12.434;2023-03-03T04:30:40;11.20;;;6.38;;
61572;SDS011;47465;43.094;12.434;2023-03-03T04:33:06;11.27;;;6.57;;
61572;SDS011;47465;43.094;12.434;2023-03-03T04:35:32;12.65;;;7.07;;
61572;SDS011;47465;43.094;12.434;2023-03-03T04:37:58;13.52;;;7.40;;
61572;SDS011;47465;43.094;12.434;2023-03-03T04:40:24;14.07;;;7.50;;
61572;SDS011;47465;43.094;12.434;2023-03-03T04:42:51;11.18;;;5.80;;
61572;SDS011;47465;43.094;12.434;2023-03-03T04:45:17;13.77;;;6.85;;
61572;SDS011;47465;43.094;12.434;2023-03-03T04:47:43;11.55;;;7.10;;
61572;SDS011;47465;43.094;12.434;2023-03-03T04:50:10;12.73;;;7.22;;
61572;SDS011;47465;43.094;12.434;2023-03-03T04:52:36;12.75;;;7.57;;
61572;SDS011;47465;43.094;12.434;2023-03-03T04:55:03;10.55;;;6.72;;
61572;SDS011;47465;43.094;12.434;2023-03-03T04:57:29;12.13;;;6.85;;
61572;SDS011;47465;43.094;12.434;2023-03-03T04:59:57;11.30;;;6.65;;
61572;SDS011;47465;43.094;12.434;2023-03-03T05:02:23;13.40;;;6.40;;
61572;SDS011;47465;43.094;12.434;2023-03-03T05:04:49;12.63;;;6.40;;
61572;SDS011;47465;43.094;12.434;2023-03-03T05:07:15;12.60;;;7.53;;
61572;SDS011;47465;43.094;12.434;2023-03-03T05:09:43;14.02;;;7.93;;
61572;SDS011;47465;43.094;12.434;2023-03-03T05:12:09;17.52;;;8.57;;
61572;SDS011;47465;43.094;12.434;2023-03-03T05:14:35;14.32;;;8.05;;
61572;SDS011;47465;43.094;12.434;2023-03-03T05:17:02;12.32;;;6.68;;
61572;SDS011;47465;43.094;12.434;2023-03-03T05:21:55;14.60;;;7.78;;
61572;SDS011;47465;43.094;12.434;2023-03-03T05:24:21;13.93;;;7.78;;
61572;SDS011;47465;43.094;12.434;2023-03-03T05:26:48;10.88;;;6.53;;
61572;SDS011;47465;43.094;12.434;2023-03-03T05:29:14;15.48;;;7.85;;
61572;SDS011;47465;43.094;12.434;2023-03-03T05:31:39;12.23;;;8.00;;
61572;SDS011;47465;43.094;12.434;2023-03-03T05:34:07;13.63;;;8.80;;
61572;SDS011;47465;43.094;12.434;2023-03-03T05:36:33;15.25;;;8.48;;
61572;SDS011;47465;43.094;12.434;2023-03-03T05:38:58;16.40;;;7.43;;
61572;SDS011;47465;43.094;12.434;2023-03-03T05:41:24;12.75;;;7.13;;
61572;SDS011;47465;43.094;12.434;2023-03-03T05:43:50;14.77;;;7.47;;
61572;SDS011;47465;43.094;12.434;2023-03-03T05:46:16;14.80;;;8.93;;
61572;SDS011;47465;43.094;12.434;2023-03-03T05:48:42;18.02;;;8.20;;
61572;SDS011;47465;43.094;12.434;2023-03-03T05:51:10;15.48;;;8.55;;
61572;SDS011;47465;43.094;12.434;2023-03-03T05:53:36;18.90;;;9.85;;
61572;SDS011;47465;43.094;12.434;2023-03-03T05:56:02;14.95;;;8.23;;
61572;SDS011;47465;43.094;12.434;2023-03-03T05:58:29;16.85;;;9.80;;
61572;SDS011;47465;43.094;12.434;2023-03-03T06:00:55;14.10;;;7.68;;
61572;SDS011;47465;43.094;12.434;2023-03-03T06:03:21;15.48;;;8.27;;
61572;SDS011;47465;43.094;12.434;2023-03-03T06:05:47;19.35;;;9.63;;
61572;SDS011;47465;43.094;12.434;2023-03-03T06:08:14;13.60;;;8.55;;
61572;SDS011;47465;43.094;12.434;2023-03-03T06:10:40;16.13;;;8.57;;
61572;SDS011;47465;43.094;12.434;2023-03-03T06:13:06;15.82;;;9.00;;
61572;SDS011;47465;43.094;12.434;2023-03-03T06:15:32;15.80;;;8.95;;
61572;SDS011;47465;43.094;12.434;2023-03-03T06:17:58;14.80;;;8.77;;
61572;SDS011;47465;43.094;12.434;2023-03-03T06:20:27;15.48;;;8.45;;
61572;SDS011;47465;43.094;12.434;2023-03-03T06:22:53;17.85;;;9.20;;
61572;SDS011;47465;43.094;12.434;2023-03-03T06:25:21;15.25;;;9.07;;
61572;SDS011;47465;43.094;12.434;2023-03-03T06:27:46;16.52;;;9.20;;
61572;SDS011;47465;43.094;12.434;2023-03-03T06:30:13;18.25;;;9.57;;
61572;SDS011;47465;43.094;12.434;2023-03-03T06:32:39;15.60;;;8.35;;
61572;SDS011;47465;43.094;12.434;2023-03-03T06:35:05;18.00;;;9.15;;
61572;SDS011;47465;43.094;12.434;2023-03-03T06:37:31;15.40;;;8.05;;
61572;SDS011;47465;43.094;12.434;2023-03-03T06:39:58;16.65;;;8.95;;
61572;SDS011;47465;43.094;12.434;2023-03-03T06:42:26;14.70;;;7.70;;
61572;SDS011;47465;43.094;12.434;2023-03-03T06:44:52;13.18;;;7.68;;
61572;SDS011;47465;43.094;12.434;2023-03-03T06:47:18;16.48;;;8.18;;
61572;SDS011;47465;43.094;12.434;2023-03-03T06:49:43;15.20;;;8.18;;
61572;SDS011;47465;43.094;12.434;2023-03-03T06:52:10;15.40;;;9.00;;
61572;SDS011;47465;43.094;12.434;2023-03-03T06:54:38;15.37;;;8.80;;
61572;SDS011;47465;43.094;12.434;2023-03-03T06:57:06;17.50;;;9.70;;
61572;SDS011;47465;43.094;12.434;2023-03-03T06:59:41;18.45;;;8.95;;
61572;SDS011;47465;43.094;12.434;2023-03-03T07:02:10;15.13;;;9.00;;
61572;SDS011;47465;43.094;12.434;2023-03-03T07:04:40;18.27;;;9.95;;
61572;SDS011;47465;43.094;12.434;2023-03-03T07:07:07;19.75;;;9.20;;
61572;SDS011;47465;43.094;12.434;2023-03-03T07:09:39;16.90;;;9.20;;
61572;SDS011;47465;43.094;12.434;2023-03-03T07:12:08;14.85;;;8.95;;
61572;SDS011;47465;43.094;12.434;2023-03-03T07:14:35;13.98;;;7.90;;
61572;SDS011;47465;43.094;12.434;2023-03-03T07:17:08;14.63;;;7.50;;
61572;SDS011;47465;43.094;12.434;2023-03-03T07:19:39;15.18;;;7.55;;
61572;SDS011;47465;43.094;12.434;2023-03-03T07:22:10;12.63;;;7.47;;
61572;SDS011;47465;43.094;12.434;2023-03-03T07:24:40;16.75;;;8.60;;
61572;SDS011;47465;43.094;12.434;2023-03-03T07:27:10;13.88;;;9.00;;
61572;SDS011;47465;43.094;12.434;2023-03-03T07:29:38;17.58;;;8.88;;
61572;SDS011;47465;43.094;12.434;2023-03-03T07:32:10;14.15;;;8.43;;
61572;SDS011;47465;43.094;12.434;2023-03-03T07:34:53;14.20;;;7.97;;
61572;SDS011;47465;43.094;12.434;2023-03-03T07:37:23;15.55;;;8.30;;
61572;SDS011;47465;43.094;12.434;2023-03-03T07:39:53;12.93;;;7.93;;
61572;SDS011;47465;43.094;12.434;2023-03-03T07:42:21;13.75;;;7.07;;
61572;SDS011;47465;43.094;12.434;2023-03-03T07:44:49;15.55;;;8.30;;
61572;SDS011;47465;43.094;12.434;2023-03-03T07:47:21;12.00;;;7.40;;
61572;SDS011;47465;43.094;12.434;2023-03-03T07:49:49;10.70;;;5.95;;
61572;SDS011;47465;43.094;12.434;2023-03-03T07:52:20;10.95;;;6.32;;
61572;SDS011;47465;43.094;12.434;2023-03-03T07:54:50;13.25;;;7.60;;
61572;SDS011;47465;43.094;12.434;2023-03-03T07:57:19;13.57;;;7.90;;
61572;SDS011;47465;43.094;12.434;2023-03-03T07:59:48;14.20;;;7.85;;
61572;SDS011;47465;43.094;12.434;2023-03-03T08:02:28;15.98;;;7.72;;
61572;SDS011;47465;43.094;12.434;2023-03-03T08:05:11;11.95;;;7.55;;
61572;SDS011;47465;43.094;12.434;2023-03-03T08:07:50;15.13;;;7.45;;
61572;SDS011;47465;43.094;12.434;2023-03-03T08:10:26;11.18;;;6.95;;
61572;SDS011;47465;43.094;12.434;2023-03-03T08:12:59;13.70;;;7.75;;
61572;SDS011;47465;43.094;12.434;2023-03-03T08:15:39;13.27;;;7.85;;
61572;SDS011;47465;43.094;12.434;2023-03-03T08:18:12;12.45;;;6.78;;
61572;SDS011;47465;43.094;12.434;2023-03-03T08:20:46;13.80;;;7.05;;
61572;SDS011;47465;43.094;12.434;2023-03-03T08:23:14;16.73;;;8.40;;
61572;SDS011;47465;43.094;12.434;2023-03-03T08:25:41;12.00;;;7.20;;
61572;SDS011;47465;43.094;12.434;2023-03-03T08:28:07;15.05;;;8.70;;
61572;SDS011;47465;43.094;12.434;2023-03-03T08:30:33;12.95;;;7.93;;
61572;SDS011;47465;43.094;12.434;2023-03-03T08:32:59;28.10;;;16.40;;
61572;SDS011;47465;43.094;12.434;2023-03-03T08:35:27;23.27;;;13.05;;
61572;SDS011;47465;43.094;12.434;2023-03-03T08:37:53;21.38;;;9.88;;
61572;SDS011;47465;43.094;12.434;2023-03-03T08:40:19;21.85;;;12.35;;
61572;SDS011;47465;43.094;12.434;2023-03-03T08:42:45;16.13;;;9.45;;
61572;SDS011;47465;43.094;12.434;2023-03-03T08:45:46;17.95;;;9.25;;
61572;SDS011;47465;43.094;12.434;2023-03-03T08:48:13;15.80;;;8.90;;
61572;SDS011;47465;43.094;12.434;2023-03-03T08:50:39;11.35;;;7.32;;
61572;SDS011;47465;43.094;12.434;2023-03-03T08:53:06;14.52;;;7.50;;
61572;SDS011;47465;43.094;12.434;2023-03-03T08:55:33;12.45;;;7.53;;
61572;SDS011;47465;43.094;12.434;2023-03-03T08:58:00;18.55;;;10.40;;
61572;SDS011;47465;43.094;12.434;2023-03-03T09:00:26;19.77;;;10.32;;
61572;SDS011;47465;43.094;12.434;2023-03-03T09:02:53;12.90;;;8.25;;
61572;SDS011;47465;43.094;12.434;2023-03-03T09:05:20;10.63;;;7.30;;
61572;SDS011;47465;43.094;12.434;2023-03-03T09:07:48;13.45;;;7.80;;
61572;SDS011;47465;43.094;12.434;2023-03-03T09:10:17;11.25;;;6.50;;
61572;SDS011;47465;43.094;12.434;2023-03-03T09:12:44;13.98;;;7.28;;
61572;SDS011;47465;43.094;12.434;2023-03-03T09:15:18;8.23;;;5.47;;
61572;SDS011;47465;43.094;12.434;2023-03-03T09:17:47;8.90;;;5.38;;
61572;SDS011;47465;43.094;12.434;2023-03-03T09:20:22;9.32;;;6.25;;
61572;SDS011;47465;43.094;12.434;2023-03-03T09:22:52;6.50;;;4.07;;
61572;SDS011;47465;43.094;12.434;2023-03-03T09:25:20;6.55;;;3.95;;
61572;SDS011;47465;43.094;12.434;2023-03-03T09:27:51;6.85;;;4.18;;
61572;SDS011;47465;43.094;12.434;2023-03-03T09:30:26;6.05;;;3.97;;
61572;SDS011;47465;43.094;12.434;2023-03-03T09:32:59;6.95;;;4.20;;
61572;SDS011;47465;43.094;12.434;2023-03-03T09:35:34;5.63;;;3.83;;
61572;SDS011;47465;43.094;12.434;2023-03-03T09:38:01;7.63;;;3.90;;
61572;SDS011;47465;43.094;12.434;2023-03-03T09:40:47;9.02;;;4.90;;
61572;SDS011;47465;43.094;12.434;2023-03-03T09:43:20;8.43;;;5.13;;
61572;SDS011;47465;43.094;12.434;2023-03-03T09:46:02;8.98;;;5.05;;
61572;SDS011;47465;43.094;12.434;2023-03-03T09:48:43;7.78;;;4.60;;
61572;SDS011;47465;43.094;12.434;2023-03-03T09:51:32;8.18;;;4.25;;
61572;SDS011;47465;43.094;12.434;2023-03-03T09:54:18;8.55;;;4.80;;
61572;SDS011;47465;43.094;12.434;2023-03-03T09:56:53;11.30;;;4.80;;
61572;SDS011;47465;43.094;12.434;2023-03-03T09:59:33;8.27;;;4.57;;
61572;SDS011;47465;43.094;12.434;2023-03-03T10:02:28;9.00;;;4.72;;
61572;SDS011;47465;43.094;12.434;2023-03-03T10:05:13;8.93;;;4.90;;
61572;SDS011;47465;43.094;12.434;2023-03-03T10:07:50;9.98;;;5.00;;
61572;SDS011;47465;43.094;12.434;2023-03-03T10:10:40;10.18;;;5.10;;
61572;SDS011;47465;43.094;12.434;2023-03-03T10:16:09;9.48;;;5.40;;
61572;SDS011;47465;43.094;12.434;2023-03-03T10:18:54;7.82;;;4.53;;
61572;SDS011;47465;43.094;12.434;2023-03-03T10:21:27;9.88;;;5.05;;
61572;SDS011;47465;43.094;12.434;2023-03-03T10:23:59;9.02;;;5.22;;
61572;SDS011;47465;43.094;12.434;2023-03-03T10:29:28;8.48;;;5.35;;
61572;SDS011;47465;43.094;12.434;2023-03-03T10:32:06;7.75;;;4.90;;
61572;SDS011;47465;43.094;12.434;2023-03-03T10:34:54;8.30;;;5.35;;
61572;SDS011;47465;43.094;12.434;2023-03-03T10:37:41;12.25;;;5.78;;
61572;SDS011;47465;43.094;12.434;2023-03-03T10:40:21;12.73;;;5.55;;
61572;SDS011;47465;43.094;12.434;2023-03-03T10:43:04;8.27;;;5.50;;
61572;SDS011;47465;43.094;12.434;2023-03-03T10:46:00;9.68;;;5.95;;
61572;SDS011;47465;43.094;12.434;2023-03-03T10:48:40;13.55;;;6.20;;
61572;SDS011;47465;43.094;12.434;2023-03-03T10:51:21;8.73;;;5.22;;
61572;SDS011;47465;43.094;12.434;2023-03-03T10:53:58;8.82;;;5.68;;
61572;SDS011;47465;43.094;12.434;2023-03-03T11:21:39;9.45;;;5.30;;
61572;SDS011;47465;43.094;12.434;2023-03-03T11:24:13;10.85;;;5.32;;
61572;SDS011;47465;43.094;12.434;2023-03-03T11:27:00;7.40;;;5.13;;
61572;SDS011;47465;43.094;12.434;2023-03-03T11:29:42;10.82;;;6.55;;
61572;SDS011;47465;43.094;12.434;2023-03-03T11:32:23;7.00;;;4.20;;
61572;SDS011;47465;43.094;12.434;2023-03-03T11:35:00;9.32;;;4.85;;
61572;SDS011;47465;43.094;12.434;2023-03-03T11:37:51;7.93;;;4.40;;
61572;SDS011;47465;43.094;12.434;2023-03-03T11:40:24;7.68;;;5.07;;
61572;SDS011;47465;43.094;12.434;2023-03-03T11:42:57;7.30;;;4.03;;
61572;SDS011;47465;43.094;12.434;2023-03-03T11:45:32;7.60;;;4.20;;
61572;SDS011;47465;43.094;12.434;2023-03-03T11:48:06;7.20;;;4.75;;
61572;SDS011;47465;43.094;12.434;2023-03-03T11:50:41;8.10;;;4.80;;
61572;SDS011;47465;43.094;12.434;2023-03-03T11:53:21;8.65;;;5.22;;
61572;SDS011;47465;43.094;12.434;2023-03-03T11:55:55;13.20;;;6.00;;
61572;SDS011;47465;43.094;12.434;2023-03-03T11:58:26;10.18;;;5.03;;
61572;SDS011;47465;43.094;12.434;2023-03-03T12:00:56;7.60;;;5.10;;
61572;SDS011;47465;43.094;12.434;2023-03-03T12:03:29;8.70;;;4.70;;
61572;SDS011;47465;43.094;12.434;2023-03-03T12:06:11;9.57;;;5.63;;
61572;SDS011;47465;43.094;12.434;2023-03-03T12:11:57;7.15;;;4.57;;
61572;SDS011;47465;43.094;12.434;2023-03-03T12:14:34;10.13;;;4.40;;
61572;SDS011;47465;43.094;12.434;2023-03-03T12:17:14;9.77;;;5.40;;
61572;SDS011;47465;43.094;12.434;2023-03-03T12:19:53;7.63;;;5.25;;
61572;SDS011;47465;43.094;12.434;2023-03-03T12:22:31;9.05;;;5.55;;
61572;SDS011;47465;43.094;12.434;2023-03-03T12:25:03;10.07;;;5.30;;
61572;SDS011;47465;43.094;12.434;2023-03-03T12:27:42;8.43;;;5.88;;
61572;SDS011;47465;43.094;12.434;2023-03-03T12:30:15;10.02;;;5.40;;
61572;SDS011;47465;43.094;12.434;2023-03-03T12:32:53;10.65;;;6.20;;
61572;SDS011;47465;43.094;12.434;2023-03-03T12:35:33;9.68;;;5.68;;
61572;SDS011;47465;43.094;12.434;2023-03-03T12:38:05;10.57;;;6.28;;
61572;SDS011;47465;43.094;12.434;2023-03-03T12:40:42;8.90;;;6.47;;
61572;SDS011;47465;43.094;12.434;2023-03-03T12:43:17;12.32;;;5.90;;
61572;SDS011;47465;43.094;12.434;2023-03-03T12:45:55;8.88;;;6.78;;
61572;SDS011;47465;43.094;12.434;2023-03-03T12:48:31;9.95;;;5.95;;
61572;SDS011;47465;43.094;12.434;2023-03-03T12:51:04;9.75;;;6.57;;
61572;SDS011;47465;43.094;12.434;2023-03-03T12:53:42;7.88;;;5.35;;
61572;SDS011;47465;43.094;12.434;2023-03-03T12:56:20;7.50;;;5.35;;
61572;SDS011;47465;43.094;12.434;2023-03-03T12:58:55;9.52;;;5.28;;
61572;SDS011;47465;43.094;12.434;2023-03-03T13:01:31;8.63;;;5.82;;
61572;SDS011;47465;43.094;12.434;2023-03-03T13:04:09;11.50;;;6.10;;
61572;SDS011;47465;43.094;12.434;2023-03-03T13:06:43;7.60;;;5.13;;
61572;SDS011;47465;43.094;12.434;2023-03-03T13:09:23;10.18;;;5.47;;
61572;SDS011;47465;43.094;12.434;2023-03-03T13:12:07;9.75;;;5.90;;
61572;SDS011;47465;43.094;12.434;2023-03-03T13:14:49;7.75;;;4.85;;
61572;SDS011;47465;43.094;12.434;2023-03-03T13:17:22;10.30;;;6.22;;
61572;SDS011;47465;43.094;12.434;2023-03-03T13:19:53;10.85;;;5.28;;
61572;SDS011;47465;43.094;12.434;2023-03-03T13:22:35;8.68;;;5.55;;
61572;SDS011;47465;43.094;12.434;2023-03-03T13:25:16;12.23;;;5.68;;
61572;SDS011;47465;43.094;12.434;2023-03-03T13:28:00;9.90;;;5.82;;
61572;SDS011;47465;43.094;12.434;2023-03-03T13:30:32;11.63;;;6.43;;
61572;SDS011;47465;43.094;12.434;2023-03-03T13:33:01;10.00;;;5.88;;
61572;SDS011;47465;43.094;12.434;2023-03-03T13:35:37;8.50;;;6.40;;
61572;SDS011;47465;43.094;12.434;2023-03-03T13:38:08;8.68;;;5.28;;
61572;SDS011;47465;43.094;12.434;2023-03-03T13:40:40;8.95;;;6.00;;
61572;SDS011;47465;43.094;12.434;2023-03-03T13:43:12;8.80;;;5.82;;
61572;SDS011;47465;43.094;12.434;2023-03-03T13:45:47;12.73;;;5.78;;
61572;SDS011;47465;43.094;12.434;2023-03-03T13:48:24;7.72;;;5.10;;
61572;SDS011;47465;43.094;12.434;2023-03-03T13:51:01;8.27;;;4.60;;
61572;SDS011;47465;43.094;12.434;2023-03-03T13:53:38;10.25;;;5.22;;
61572;SDS011;47465;43.094;12.434;2023-03-03T13:56:19;8.25;;;5.20;;
61572;SDS011;47465;43.094;12.434;2023-03-03T13:58:59;7.28;;;4.95;;
61572;SDS011;47465;43.094;12.434;2023-03-03T14:01:36;9.82;;;5.25;;
61572;SDS011;47465;43.094;12.434;2023-03-03T14:04:13;7.75;;;5.13;;
61572;SDS011;47465;43.094;12.434;2023-03-03T14:06:56;10.70;;;5.00;;
61572;SDS011;47465;43.094;12.434;2023-03-03T14:09:32;9.63;;;4.80;;
61572;SDS011;47465;43.094;12.434;2023-03-03T14:12:09;7.57;;;4.97;;
61572;SDS011;47465;43.094;12.434;2023-03-03T14:14:46;9.77;;;6.28;;
61572;SDS011;47465;43.094;12.434;2023-03-03T14:17:23;11.52;;;5.97;;
61572;SDS011;47465;43.094;12.434;2023-03-03T14:19:59;9.13;;;5.05;;
61572;SDS011;47465;43.094;12.434;2023-03-03T14:22:39;6.78;;;4.47;;
61572;SDS011;47465;43.094;12.434;2023-03-03T14:25:09;7.40;;;5.07;;
61572;SDS011;47465;43.094;12.434;2023-03-03T14:27:38;8.50;;;5.15;;
61572;SDS011;47465;43.094;12.434;2023-03-03T14:30:32;11.52;;;5.75;;
61572;SDS011;47465;43.094;12.434;2023-03-03T14:33:02;10.18;;;5.38;;
61572;SDS011;47465;43.094;12.434;2023-03-03T14:35:41;9.30;;;4.82;;
61572;SDS011;47465;43.094;12.434;2023-03-03T14:38:09;7.38;;;4.28;;
61572;SDS011;47465;43.094;12.434;2023-03-03T14:40:46;6.25;;;4.07;;
61572;SDS011;47465;43.094;12.434;2023-03-03T14:43:23;6.85;;;4.40;;
61572;SDS011;47465;43.094;12.434;2023-03-03T14:45:52;6.93;;;3.63;;
61572;SDS011;47465;43.094;12.434;2023-03-03T14:48:21;7.03;;;3.92;;
61572;SDS011;47465;43.094;12.434;2023-03-03T14:50:51;7.68;;;4.15;;
61572;SDS011;47465;43.094;12.434;2023-03-03T14:53:22;7.32;;;4.50;;
61572;SDS011;47465;43.094;12.434;2023-03-03T14:56:17;12.32;;;5.18;;
61572;SDS011;47465;43.094;12.434;2023-03-03T14:58:48;8.68;;;5.03;;
61572;SDS011;47465;43.094;12.434;2023-03-03T15:01:20;6.38;;;4.75;;
61572;SDS011;47465;43.094;12.434;2023-03-03T15:03:49;9.13;;;5.15;;
61572;SDS011;47465;43.094;12.434;2023-03-03T15:06:32;7.38;;;5.85;;
61572;SDS011;47465;43.094;12.434;2023-03-03T15:09:23;8.48;;;5.05;;
61572;SDS011;47465;43.094;12.434;2023-03-03T15:11:54;9.45;;;5.78;;
61572;SDS011;47465;43.094;12.434;2023-03-03T15:14:24;9.43;;;5.85;;
61572;SDS011;47465;43.094;12.434;2023-03-03T15:16:57;8.68;;;5.78;;
61572;SDS011;47465;43.094;12.434;2023-03-03T15:19:48;11.77;;;6.50;;
61572;SDS011;47465;43.094;12.434;2023-03-03T15:25:23;10.10;;;5.90;;
61572;SDS011;47465;43.094;12.434;2023-03-03T15:27:55;9.52;;;6.25;;
61572;SDS011;47465;43.094;12.434;2023-03-03T15:30:33;10.85;;;6.20;;
61572;SDS011;47465;43.094;12.434;2023-03-03T15:33:06;9.98;;;6.28;;
61572;SDS011;47465;43.094;12.434;2023-03-03T15:35:49;10.52;;;6.50;;